Terminal Aerodrome Forecast
Issued by NWS Pocatello, ID

Home | Current Version | Previous Version | Text Only | Print | Product List | Glossary On
Versions: 1 2 3 4 5 6 7 8 9 10 11 12
000
FTUS45 KPIH 201700
TAFIDA
TAF
KIDA 201720Z 2018/2118 35006KT P6SM BKN090
     FM202200 23006KT P6SM SCT080
     FM210400 12006KT P6SM FEW110
     FM210900 14010KT P6SM -SHRA SCT080 BKN110
     FM211200 17015KT P6SM -SHRA SCT070 BKN090=

USA.gov is the U.S. government's official web portal to all federal, state and local government web resources and services.